sensor_id;sensor_type;location;lat;lon;timestamp;temperature;humidity
59075;DHT22;44860;53.020;6.738;2022-10-16T00:00:32;12.80;99.90
59075;DHT22;44860;53.020;6.738;2022-10-16T00:02:58;12.80;99.90
59075;DHT22;44860;53.020;6.738;2022-10-16T00:05:24;12.80;99.90
59075;DHT22;44860;53.020;6.738;2022-10-16T00:07:49;12.70;99.90
59075;DHT22;44860;53.020;6.738;2022-10-16T00:10:15;12.70;99.90
59075;DHT22;44860;53.020;6.738;2022-10-16T00:12:40;12.70;99.90
59075;DHT22;44860;53.020;6.738;2022-10-16T00:15:06;12.70;99.90
59075;DHT22;44860;53.020;6.738;2022-10-16T00:17:32;12.70;99.90
59075;DHT22;44860;53.020;6.738;2022-10-16T00:19:58;12.70;99.90
59075;DHT22;44860;53.020;6.738;2022-10-16T00:22:24;12.70;99.90
59075;DHT22;44860;53.020;6.738;2022-10-16T00:24:49;12.70;99.90
59075;DHT22;44860;53.020;6.738;2022-10-16T00:27:15;12.70;99.90
59075;DHT22;44860;53.020;6.738;2022-10-16T00:29:42;12.70;99.90
59075;DHT22;44860;53.020;6.738;2022-10-16T00:32:07;12.70;99.90
59075;DHT22;44860;53.020;6.738;2022-10-16T00:34:33;12.70;99.90
59075;DHT22;44860;53.020;6.738;2022-10-16T00:36:59;12.70;99.90
59075;DHT22;44860;53.020;6.738;2022-10-16T00:39:24;12.70;99.90
59075;DHT22;44860;53.020;6.738;2022-10-16T00:41:50;12.70;99.90
59075;DHT22;44860;53.020;6.738;2022-10-16T00:47:13;12.70;99.90
59075;DHT22;44860;53.020;6.738;2022-10-16T00:49:41;12.70;99.90
59075;DHT22;44860;53.020;6.738;2022-10-16T00:52:07;12.80;99.90
59075;DHT22;44860;53.020;6.738;2022-10-16T00:54:33;12.70;99.90
59075;DHT22;44860;53.020;6.738;2022-10-16T00:57:05;12.80;99.90
59075;DHT22;44860;53.020;6.738;2022-10-16T00:59:37;12.70;99.90
59075;DHT22;44860;53.020;6.738;2022-10-16T01:02:06;12.70;99.90
59075;DHT22;44860;53.020;6.738;2022-10-16T01:04:37;12.70;99.90
59075;DHT22;44860;53.020;6.738;2022-10-16T01:09:53;12.70;99.90
59075;DHT22;44860;53.020;6.738;2022-10-16T01:14:58;12.70;99.90
59075;DHT22;44860;53.020;6.738;2022-10-16T01:22:57;12.70;99.90
59075;DHT22;44860;53.020;6.738;2022-10-16T01:28:17;12.70;99.90
59075;DHT22;44860;53.020;6.738;2022-10-16T01:30:45;12.70;99.90
59075;DHT22;44860;53.020;6.738;2022-10-16T01:33:24;12.70;99.90
59075;DHT22;44860;53.020;6.738;2022-10-16T01:35:58;12.70;99.90
59075;DHT22;44860;53.020;6.738;2022-10-16T01:38:33;12.70;99.90
59075;DHT22;44860;53.020;6.738;2022-10-16T01:41:11;12.70;99.90
59075;DHT22;44860;53.020;6.738;2022-10-16T01:43:42;12.70;99.90
59075;DHT22;44860;53.020;6.738;2022-10-16T01:46:08;12.80;99.90
59075;DHT22;44860;53.020;6.738;2022-10-16T01:48:35;12.70;99.90
59075;DHT22;44860;53.020;6.738;2022-10-16T01:51:13;12.80;99.90
59075;DHT22;44860;53.020;6.738;2022-10-16T01:53:40;12.80;99.90
59075;DHT22;44860;53.020;6.738;2022-10-16T01:56:09;12.80;99.90
59075;DHT22;44860;53.020;6.738;2022-10-16T01:58:39;12.70;99.90
59075;DHT22;44860;53.020;6.738;2022-10-16T02:01:08;12.80;99.90
59075;DHT22;44860;53.020;6.738;2022-10-16T02:03:37;12.80;99.90
59075;DHT22;44860;53.020;6.738;2022-10-16T02:06:07;12.80;99.90
59075;DHT22;44860;53.020;6.738;2022-10-16T02:08:32;12.80;99.90
59075;DHT22;44860;53.020;6.738;2022-10-16T02:11:00;12.80;99.90
59075;DHT22;44860;53.020;6.738;2022-10-16T02:13:45;12.80;99.90
59075;DHT22;44860;53.020;6.738;2022-10-16T02:16:12;12.80;99.90
59075;DHT22;44860;53.020;6.738;2022-10-16T02:18:39;12.80;99.90
59075;DHT22;44860;53.020;6.738;2022-10-16T02:21:08;12.80;99.90
59075;DHT22;44860;53.020;6.738;2022-10-16T02:26:32;12.80;99.90
59075;DHT22;44860;53.020;6.738;2022-10-16T02:29:02;12.80;99.90
59075;DHT22;44860;53.020;6.738;2022-10-16T02:31:32;12.80;99.90
59075;DHT22;44860;53.020;6.738;2022-10-16T02:34:00;12.80;99.90
59075;DHT22;44860;53.020;6.738;2022-10-16T02:36:28;12.80;99.90
59075;DHT22;44860;53.020;6.738;2022-10-16T02:38:55;12.90;99.90
59075;DHT22;44860;53.020;6.738;2022-10-16T02:41:21;12.90;99.90
59075;DHT22;44860;53.020;6.738;2022-10-16T02:43:48;12.80;99.90
59075;DHT22;44860;53.020;6.738;2022-10-16T02:46:15;12.90;99.90
59075;DHT22;44860;53.020;6.738;2022-10-16T02:48:40;12.90;99.90
59075;DHT22;44860;53.020;6.738;2022-10-16T02:51:06;12.90;99.90
59075;DHT22;44860;53.020;6.738;2022-10-16T02:53:32;12.90;99.90
59075;DHT22;44860;53.020;6.738;2022-10-16T02:55:57;12.90;99.90
59075;DHT22;44860;53.020;6.738;2022-10-16T02:58:23;12.90;99.90
59075;DHT22;44860;53.020;6.738;2022-10-16T03:00:48;12.90;99.90
59075;DHT22;44860;53.020;6.738;2022-10-16T03:03:14;12.90;99.90
59075;DHT22;44860;53.020;6.738;2022-10-16T03:05:40;12.90;99.90
59075;DHT22;44860;53.020;6.738;2022-10-16T03:08:05;12.90;99.90
59075;DHT22;44860;53.020;6.738;2022-10-16T03:10:31;13.00;99.90
59075;DHT22;44860;53.020;6.738;2022-10-16T03:12:57;13.00;99.90
59075;DHT22;44860;53.020;6.738;2022-10-16T03:15:22;13.00;99.90
59075;DHT22;44860;53.020;6.738;2022-10-16T03:17:48;13.00;99.90
59075;DHT22;44860;53.020;6.738;2022-10-16T03:20:13;13.00;99.90
59075;DHT22;44860;53.020;6.738;2022-10-16T03:22:39;13.00;99.90
59075;DHT22;44860;53.020;6.738;2022-10-16T03:25:05;13.00;99.90
59075;DHT22;44860;53.020;6.738;2022-10-16T03:27:31;13.00;99.90
59075;DHT22;44860;53.020;6.738;2022-10-16T03:29:56;13.00;99.90
59075;DHT22;44860;53.020;6.738;2022-10-16T03:32:22;13.00;99.90
59075;DHT22;44860;53.020;6.738;2022-10-16T03:34:50;13.00;99.90
59075;DHT22;44860;53.020;6.738;2022-10-16T03:37:16;13.00;99.90
59075;DHT22;44860;53.020;6.738;2022-10-16T03:39:41;13.00;99.90
59075;DHT22;44860;53.020;6.738;2022-10-16T03:42:07;13.00;99.90
59075;DHT22;44860;53.020;6.738;2022-10-16T03:44:32;13.00;99.90
59075;DHT22;44860;53.020;6.738;2022-10-16T03:46:58;13.00;99.90
59075;DHT22;44860;53.020;6.738;2022-10-16T03:49:23;13.00;99.90
59075;DHT22;44860;53.020;6.738;2022-10-16T03:51:49;13.10;99.90
59075;DHT22;44860;53.020;6.738;2022-10-16T03:54:15;13.10;99.90
59075;DHT22;44860;53.020;6.738;2022-10-16T03:56:40;13.10;99.90
59075;DHT22;44860;53.020;6.738;2022-10-16T03:59:06;13.10;99.90
59075;DHT22;44860;53.020;6.738;2022-10-16T04:01:32;13.10;99.90
59075;DHT22;44860;53.020;6.738;2022-10-16T04:03:57;13.10;99.90
59075;DHT22;44860;53.020;6.738;2022-10-16T04:06:23;13.00;99.90
59075;DHT22;44860;53.020;6.738;2022-10-16T04:08:49;13.10;99.90
59075;DHT22;44860;53.020;6.738;2022-10-16T04:11:14;13.10;99.90
59075;DHT22;44860;53.020;6.738;2022-10-16T04:13:40;13.00;99.90
59075;DHT22;44860;53.020;6.738;2022-10-16T04:16:07;13.10;99.90
59075;DHT22;44860;53.020;6.738;2022-10-16T04:18:32;13.10;99.90
59075;DHT22;44860;53.020;6.738;2022-10-16T04:21:03;13.00;99.90
59075;DHT22;44860;53.020;6.738;2022-10-16T04:23:29;13.00;99.90
59075;DHT22;44860;53.020;6.738;2022-10-16T04:25:55;13.00;99.90
59075;DHT22;44860;53.020;6.738;2022-10-16T04:28:20;13.00;99.90
59075;DHT22;44860;53.020;6.738;2022-10-16T04:30:46;12.90;99.90
59075;DHT22;44860;53.020;6.738;2022-10-16T04:33:12;13.00;99.90
59075;DHT22;44860;53.020;6.738;2022-10-16T04:35:38;13.00;99.90
59075;DHT22;44860;53.020;6.738;2022-10-16T04:38:04;12.90;99.90
59075;DHT22;44860;53.020;6.738;2022-10-16T04:40:30;13.00;99.90
59075;DHT22;44860;53.020;6.738;2022-10-16T04:42:58;13.00;99.90
59075;DHT22;44860;53.020;6.738;2022-10-16T04:45:24;13.00;99.90
59075;DHT22;44860;53.020;6.738;2022-10-16T04:47:50;13.00;99.90
59075;DHT22;44860;53.020;6.738;2022-10-16T04:50:16;13.00;99.90
59075;DHT22;44860;53.020;6.738;2022-10-16T04:52:41;13.00;99.90
59075;DHT22;44860;53.020;6.738;2022-10-16T04:55:07;13.00;99.90
59075;DHT22;44860;53.020;6.738;2022-10-16T04:57:33;13.00;99.90
59075;DHT22;44860;53.020;6.738;2022-10-16T04:59:59;13.10;99.90
59075;DHT22;44860;53.020;6.738;2022-10-16T05:02:25;13.00;99.90
59075;DHT22;44860;53.020;6.738;2022-10-16T05:04:51;13.00;99.90
59075;DHT22;44860;53.020;6.738;2022-10-16T05:07:17;13.00;99.90
59075;DHT22;44860;53.020;6.738;2022-10-16T05:09:42;13.10;99.90
59075;DHT22;44860;53.020;6.738;2022-10-16T05:12:08;13.10;99.90
59075;DHT22;44860;53.020;6.738;2022-10-16T05:14:34;13.00;99.90
59075;DHT22;44860;53.020;6.738;2022-10-16T05:17:00;13.10;99.90
59075;DHT22;44860;53.020;6.738;2022-10-16T05:19:26;13.10;99.90
59075;DHT22;44860;53.020;6.738;2022-10-16T05:21:51;13.10;99.90
59075;DHT22;44860;53.020;6.738;2022-10-16T05:24:17;13.00;99.90
59075;DHT22;44860;53.020;6.738;2022-10-16T05:26:42;13.00;99.90
59075;DHT22;44860;53.020;6.738;2022-10-16T05:29:09;13.00;99.90
59075;DHT22;44860;53.020;6.738;2022-10-16T05:31:34;13.00;99.90
59075;DHT22;44860;53.020;6.738;2022-10-16T05:34:01;13.00;99.90
59075;DHT22;44860;53.020;6.738;2022-10-16T05:36:27;13.00;99.90
59075;DHT22;44860;53.020;6.738;2022-10-16T05:38:53;13.00;99.90
59075;DHT22;44860;53.020;6.738;2022-10-16T05:41:19;13.00;99.90
59075;DHT22;44860;53.020;6.738;2022-10-16T05:43:47;13.00;99.90
59075;DHT22;44860;53.020;6.738;2022-10-16T05:46:13;13.00;99.90
59075;DHT22;44860;53.020;6.738;2022-10-16T05:48:39;13.00;99.90
59075;DHT22;44860;53.020;6.738;2022-10-16T05:51:06;13.00;99.90
59075;DHT22;44860;53.020;6.738;2022-10-16T05:53:34;13.00;99.90
59075;DHT22;44860;53.020;6.738;2022-10-16T05:56:01;13.00;99.90
59075;DHT22;44860;53.020;6.738;2022-10-16T05:58:35;13.00;99.90
59075;DHT22;44860;53.020;6.738;2022-10-16T06:01:04;13.10;99.90
59075;DHT22;44860;53.020;6.738;2022-10-16T06:03:30;13.10;99.90
59075;DHT22;44860;53.020;6.738;2022-10-16T06:05:56;13.10;99.90
59075;DHT22;44860;53.020;6.738;2022-10-16T06:08:22;13.10;99.90
59075;DHT22;44860;53.020;6.738;2022-10-16T06:10:48;13.10;99.90
59075;DHT22;44860;53.020;6.738;2022-10-16T06:13:15;13.10;99.90
59075;DHT22;44860;53.020;6.738;2022-10-16T06:15:42;13.10;99.90
59075;DHT22;44860;53.020;6.738;2022-10-16T06:18:09;13.10;99.90
59075;DHT22;44860;53.020;6.738;2022-10-16T06:20:35;13.10;99.90
59075;DHT22;44860;53.020;6.738;2022-10-16T06:23:01;13.10;99.90
59075;DHT22;44860;53.020;6.738;2022-10-16T06:25:27;13.10;99.90
59075;DHT22;44860;53.020;6.738;2022-10-16T06:27:53;13.20;99.90
59075;DHT22;44860;53.020;6.738;2022-10-16T06:30:18;13.10;99.90
59075;DHT22;44860;53.020;6.738;2022-10-16T06:32:44;13.20;99.90
59075;DHT22;44860;53.020;6.738;2022-10-16T06:35:09;13.20;99.90
59075;DHT22;44860;53.020;6.738;2022-10-16T06:37:35;13.20;99.90
59075;DHT22;44860;53.020;6.738;2022-10-16T06:40:00;13.10;99.90
59075;DHT22;44860;53.020;6.738;2022-10-16T06:42:29;13.20;99.90
59075;DHT22;44860;53.020;6.738;2022-10-16T06:44:55;13.10;99.90
59075;DHT22;44860;53.020;6.738;2022-10-16T06:47:21;13.20;99.90
59075;DHT22;44860;53.020;6.738;2022-10-16T06:49:46;13.10;99.90
59075;DHT22;44860;53.020;6.738;2022-10-16T06:52:12;13.10;99.90
59075;DHT22;44860;53.020;6.738;2022-10-16T06:54:38;13.10;99.90
59075;DHT22;44860;53.020;6.738;2022-10-16T06:57:03;13.10;99.90
59075;DHT22;44860;53.020;6.738;2022-10-16T06:59:29;13.10;99.90
59075;DHT22;44860;53.020;6.738;2022-10-16T07:01:54;13.20;99.90
59075;DHT22;44860;53.020;6.738;2022-10-16T07:04:20;13.20;99.90
59075;DHT22;44860;53.020;6.738;2022-10-16T07:06:46;13.20;99.90
59075;DHT22;44860;53.020;6.738;2022-10-16T07:09:12;13.20;99.90
59075;DHT22;44860;53.020;6.738;2022-10-16T07:11:38;13.20;99.90
59075;DHT22;44860;53.020;6.738;2022-10-16T07:14:04;13.20;99.90
59075;DHT22;44860;53.020;6.738;2022-10-16T07:16:32;13.30;99.90
59075;DHT22;44860;53.020;6.738;2022-10-16T07:19:00;13.30;99.90
59075;DHT22;44860;53.020;6.738;2022-10-16T07:21:28;13.30;99.90
59075;DHT22;44860;53.020;6.738;2022-10-16T07:23:57;13.30;99.90
59075;DHT22;44860;53.020;6.738;2022-10-16T07:26:25;13.40;99.90
59075;DHT22;44860;53.020;6.738;2022-10-16T07:28:51;13.30;99.90
59075;DHT22;44860;53.020;6.738;2022-10-16T07:31:18;13.30;99.90
59075;DHT22;44860;53.020;6.738;2022-10-16T07:33:45;13.30;99.90
59075;DHT22;44860;53.020;6.738;2022-10-16T07:36:12;13.40;99.90
59075;DHT22;44860;53.020;6.738;2022-10-16T07:38:38;13.40;99.90
59075;DHT22;44860;53.020;6.738;2022-10-16T07:41:06;13.40;99.90
59075;DHT22;44860;53.020;6.738;2022-10-16T07:43:33;13.50;99.90
59075;DHT22;44860;53.020;6.738;2022-10-16T07:45:58;13.50;99.90
59075;DHT22;44860;53.020;6.738;2022-10-16T07:48:27;13.50;99.90
59075;DHT22;44860;53.020;6.738;2022-10-16T07:51:00;13.50;99.90
59075;DHT22;44860;53.020;6.738;2022-10-16T07:53:26;13.50;99.90
59075;DHT22;44860;53.020;6.738;2022-10-16T07:55:52;13.50;99.90
59075;DHT22;44860;53.020;6.738;2022-10-16T07:58:22;13.50;99.90
59075;DHT22;44860;53.020;6.738;2022-10-16T08:00:47;13.60;99.90
59075;DHT22;44860;53.020;6.738;2022-10-16T08:03:13;13.60;99.90
59075;DHT22;44860;53.020;6.738;2022-10-16T08:05:38;13.60;99.90
59075;DHT22;44860;53.020;6.738;2022-10-16T08:08:04;13.60;99.90
59075;DHT22;44860;53.020;6.738;2022-10-16T08:10:30;13.60;99.90
59075;DHT22;44860;53.020;6.738;2022-10-16T08:12:57;13.70;99.90
59075;DHT22;44860;53.020;6.738;2022-10-16T08:15:22;13.70;99.90
59075;DHT22;44860;53.020;6.738;2022-10-16T08:17:56;13.70;99.90
59075;DHT22;44860;53.020;6.738;2022-10-16T08:20:22;13.70;99.90
59075;DHT22;44860;53.020;6.738;2022-10-16T08:22:48;13.80;99.90
59075;DHT22;44860;53.020;6.738;2022-10-16T08:25:13;13.80;99.90
59075;DHT22;44860;53.020;6.738;2022-10-16T08:27:39;13.80;99.90
59075;DHT22;44860;53.020;6.738;2022-10-16T08:30:05;13.80;99.90
59075;DHT22;44860;53.020;6.738;2022-10-16T08:32:31;13.80;99.90
59075;DHT22;44860;53.020;6.738;2022-10-16T08:34:56;13.80;99.90
59075;DHT22;44860;53.020;6.738;2022-10-16T08:37:22;13.90;99.90
59075;DHT22;44860;53.020;6.738;2022-10-16T08:39:47;13.90;99.90
59075;DHT22;44860;53.020;6.738;2022-10-16T08:45:19;13.90;99.90
59075;DHT22;44860;53.020;6.738;2022-10-16T08:48:00;14.00;99.90
59075;DHT22;44860;53.020;6.738;2022-10-16T08:50:32;14.00;99.90
59075;DHT22;44860;53.020;6.738;2022-10-16T08:52:59;14.10;99.90
59075;DHT22;44860;53.020;6.738;2022-10-16T08:55:41;14.20;99.90
59075;DHT22;44860;53.020;6.738;2022-10-16T08:58:33;14.20;99.90
59075;DHT22;44860;53.020;6.738;2022-10-16T09:01:04;14.30;99.90
59075;DHT22;44860;53.020;6.738;2022-10-16T09:06:43;14.30;99.90
59075;DHT22;44860;53.020;6.738;2022-10-16T09:20:20;14.60;99.90
59075;DHT22;44860;53.020;6.738;2022-10-16T09:23:14;14.60;99.90
59075;DHT22;44860;53.020;6.738;2022-10-16T09:25:43;14.70;99.90
59075;DHT22;44860;53.020;6.738;2022-10-16T09:28:10;14.80;99.90
59075;DHT22;44860;53.020;6.738;2022-10-16T09:30:36;14.80;99.90
59075;DHT22;44860;53.020;6.738;2022-10-16T09:33:03;14.90;99.90
59075;DHT22;44860;53.020;6.738;2022-10-16T09:35:45;14.90;99.90
59075;DHT22;44860;53.020;6.738;2022-10-16T09:38:29;14.90;99.90
59075;DHT22;44860;53.020;6.738;2022-10-16T09:40:57;15.00;99.90
59075;DHT22;44860;53.020;6.738;2022-10-16T09:43:34;15.10;99.90
59075;DHT22;44860;53.020;6.738;2022-10-16T09:46:04;15.10;99.90
59075;DHT22;44860;53.020;6.738;2022-10-16T09:48:44;15.20;99.90
59075;DHT22;44860;53.020;6.738;2022-10-16T09:51:36;15.30;99.90
59075;DHT22;44860;53.020;6.738;2022-10-16T09:56:36;15.30;99.90
59075;DHT22;44860;53.020;6.738;2022-10-16T10:01:52;15.40;99.90
59075;DHT22;44860;53.020;6.738;2022-10-16T10:04:20;15.40;99.90
59075;DHT22;44860;53.020;6.738;2022-10-16T10:06:53;15.50;99.90
59075;DHT22;44860;53.020;6.738;2022-10-16T10:09:22;15.50;99.90
59075;DHT22;44860;53.020;6.738;2022-10-16T10:11:57;15.50;99.90
59075;DHT22;44860;53.020;6.738;2022-10-16T10:14:31;15.50;99.90
59075;DHT22;44860;53.020;6.738;2022-10-16T10:19:30;15.50;99.90
59075;DHT22;44860;53.020;6.738;2022-10-16T10:22:21;15.60;99.90
59075;DHT22;44860;53.020;6.738;2022-10-16T10:27:30;15.70;99.90
59075;DHT22;44860;53.020;6.738;2022-10-16T10:30:01;15.70;99.90
59075;DHT22;44860;53.020;6.738;2022-10-16T10:35:45;15.70;99.90
59075;DHT22;44860;53.020;6.738;2022-10-16T10:44:20;16.00;99.90
59075;DHT22;44860;53.020;6.738;2022-10-16T10:50:07;16.10;99.90
59075;DHT22;44860;53.020;6.738;2022-10-16T10:55:48;16.20;99.90
59075;DHT22;44860;53.020;6.738;2022-10-16T10:58:48;16.30;99.90
59075;DHT22;44860;53.020;6.738;2022-10-16T11:01:17;16.20;99.90
59075;DHT22;44860;53.020;6.738;2022-10-16T11:07:11;16.20;99.90
59075;DHT22;44860;53.020;6.738;2022-10-16T11:09:53;16.30;99.90
59075;DHT22;44860;53.020;6.738;2022-10-16T11:12:36;16.30;99.90
59075;DHT22;44860;53.020;6.738;2022-10-16T11:17:41;16.30;99.90
59075;DHT22;44860;53.020;6.738;2022-10-16T11:20:26;16.30;99.90
59075;DHT22;44860;53.020;6.738;2022-10-16T11:23:18;16.30;99.90
59075;DHT22;44860;53.020;6.738;2022-10-16T11:25:46;16.30;99.90
59075;DHT22;44860;53.020;6.738;2022-10-16T11:28:32;16.40;99.90
59075;DHT22;44860;53.020;6.738;2022-10-16T11:36:42;16.60;99.90
59075;DHT22;44860;53.020;6.738;2022-10-16T11:39:28;16.70;99.90
59075;DHT22;44860;53.020;6.738;2022-10-16T11:42:04;16.80;99.90
59075;DHT22;44860;53.020;6.738;2022-10-16T11:44:54;16.90;99.90
59075;DHT22;44860;53.020;6.738;2022-10-16T11:47:40;16.90;99.90
59075;DHT22;44860;53.020;6.738;2022-10-16T11:50:34;17.00;99.90
59075;DHT22;44860;53.020;6.738;2022-10-16T11:55:49;17.10;99.90
59075;DHT22;44860;53.020;6.738;2022-10-16T12:06:57;17.00;99.90
59075;DHT22;44860;53.020;6.738;2022-10-16T12:09:33;17.10;99.90
59075;DHT22;44860;53.020;6.738;2022-10-16T12:12:00;17.10;99.90
59075;DHT22;44860;53.020;6.738;2022-10-16T12:17:03;17.30;99.90
59075;DHT22;44860;53.020;6.738;2022-10-16T12:19:31;17.30;99.90
59075;DHT22;44860;53.020;6.738;2022-10-16T12:22:02;17.30;99.90
59075;DHT22;44860;53.020;6.738;2022-10-16T12:24:41;17.30;99.90
59075;DHT22;44860;53.020;6.738;2022-10-16T12:27:30;17.30;99.90
59075;DHT22;44860;53.020;6.738;2022-10-16T12:29:59;17.40;99.90
59075;DHT22;44860;53.020;6.738;2022-10-16T12:34:53;17.50;99.90
59075;DHT22;44860;53.020;6.738;2022-10-16T12:37:28;17.50;99.90
59075;DHT22;44860;53.020;6.738;2022-10-16T12:39:56;17.40;99.90
59075;DHT22;44860;53.020;6.738;2022-10-16T12:44:52;17.40;99.90
59075;DHT22;44860;53.020;6.738;2022-10-16T12:47:37;17.30;99.90
59075;DHT22;44860;53.020;6.738;2022-10-16T12:50:04;17.40;99.90
59075;DHT22;44860;53.020;6.738;2022-10-16T12:52:48;17.30;99.90
59075;DHT22;44860;53.020;6.738;2022-10-16T12:55:19;17.20;99.90
59075;DHT22;44860;53.020;6.738;2022-10-16T12:58:06;17.20;99.90
59075;DHT22;44860;53.020;6.738;2022-10-16T13:01:03;17.20;99.90
59075;DHT22;44860;53.020;6.738;2022-10-16T13:03:44;17.30;99.90
59075;DHT22;44860;53.020;6.738;2022-10-16T13:09:13;17.40;99.90
59075;DHT22;44860;53.020;6.738;2022-10-16T13:22:35;17.70;99.90
59075;DHT22;44860;53.020;6.738;2022-10-16T13:28:07;17.80;99.90
59075;DHT22;44860;53.020;6.738;2022-10-16T13:31:05;17.90;99.90
59075;DHT22;44860;53.020;6.738;2022-10-16T13:33:46;17.80;99.90
59075;DHT22;44860;53.020;6.738;2022-10-16T13:36:44;17.90;99.90
59075;DHT22;44860;53.020;6.738;2022-10-16T13:39:14;17.90;98.80
59075;DHT22;44860;53.020;6.738;2022-10-16T13:41:40;18.00;99.90
59075;DHT22;44860;53.020;6.738;2022-10-16T13:44:14;18.00;99.10
59075;DHT22;44860;53.020;6.738;2022-10-16T13:46:41;18.00;94.60
59075;DHT22;44860;53.020;6.738;2022-10-16T13:49:15;18.00;94.00
59075;DHT22;44860;53.020;6.738;2022-10-16T13:51:42;18.00;96.90
59075;DHT22;44860;53.020;6.738;2022-10-16T13:54:18;18.10;97.30
59075;DHT22;44860;53.020;6.738;2022-10-16T13:56:44;18.20;97.30
59075;DHT22;44860;53.020;6.738;2022-10-16T13:59:27;18.30;97.50
59075;DHT22;44860;53.020;6.738;2022-10-16T14:01:58;18.50;95.80
59075;DHT22;44860;53.020;6.738;2022-10-16T14:04:29;18.50;91.30
59075;DHT22;44860;53.020;6.738;2022-10-16T14:06:56;18.50;86.20
59075;DHT22;44860;53.020;6.738;2022-10-16T14:09:27;18.60;87.70
59075;DHT22;44860;53.020;6.738;2022-10-16T14:11:57;18.60;85.80
59075;DHT22;44860;53.020;6.738;2022-10-16T14:14:24;18.60;87.60
59075;DHT22;44860;53.020;6.738;2022-10-16T14:16:52;18.60;83.90
59075;DHT22;44860;53.020;6.738;2022-10-16T14:19:26;18.50;80.10
59075;DHT22;44860;53.020;6.738;2022-10-16T14:21:53;18.50;83.70
59075;DHT22;44860;53.020;6.738;2022-10-16T14:24:34;18.40;87.40
59075;DHT22;44860;53.020;6.738;2022-10-16T14:27:00;18.40;89.40
59075;DHT22;44860;53.020;6.738;2022-10-16T14:29:28;18.40;90.40
59075;DHT22;44860;53.020;6.738;2022-10-16T14:34:37;18.30;88.90
59075;DHT22;44860;53.020;6.738;2022-10-16T14:37:23;18.20;90.10
59075;DHT22;44860;53.020;6.738;2022-10-16T14:39:50;18.10;91.90
59075;DHT22;44860;53.020;6.738;2022-10-16T14:42:18;18.00;92.30
59075;DHT22;44860;53.020;6.738;2022-10-16T14:44:45;17.90;91.70
59075;DHT22;44860;53.020;6.738;2022-10-16T14:47:16;17.80;92.10
59075;DHT22;44860;53.020;6.738;2022-10-16T14:49:47;17.80;93.00
59075;DHT22;44860;53.020;6.738;2022-10-16T14:52:14;17.60;94.50
59075;DHT22;44860;53.020;6.738;2022-10-16T14:54:40;17.60;94.70
59075;DHT22;44860;53.020;6.738;2022-10-16T14:57:19;17.50;95.60
59075;DHT22;44860;53.020;6.738;2022-10-16T14:59:46;17.40;96.80
59075;DHT22;44860;53.020;6.738;2022-10-16T15:02:35;17.40;95.80
59075;DHT22;44860;53.020;6.738;2022-10-16T15:05:15;17.30;97.40
59075;DHT22;44860;53.020;6.738;2022-10-16T15:07:42;17.20;97.90
59075;DHT22;44860;53.020;6.738;2022-10-16T15:10:07;17.20;98.10
59075;DHT22;44860;53.020;6.738;2022-10-16T15:12:33;17.20;98.70
59075;DHT22;44860;53.020;6.738;2022-10-16T15:14:59;17.10;99.40
59075;DHT22;44860;53.020;6.738;2022-10-16T15:17:24;17.10;99.90
59075;DHT22;44860;53.020;6.738;2022-10-16T15:19:50;17.10;99.90
59075;DHT22;44860;53.020;6.738;2022-10-16T15:22:16;17.00;99.90
59075;DHT22;44860;53.020;6.738;2022-10-16T15:24:43;17.00;99.90
59075;DHT22;44860;53.020;6.738;2022-10-16T15:27:08;16.90;99.90
59075;DHT22;44860;53.020;6.738;2022-10-16T15:29:34;16.90;99.90
59075;DHT22;44860;53.020;6.738;2022-10-16T15:32:00;16.80;99.90
59075;DHT22;44860;53.020;6.738;2022-10-16T15:34:25;16.70;99.90
59075;DHT22;44860;53.020;6.738;2022-10-16T15:36:51;16.70;99.90
59075;DHT22;44860;53.020;6.738;2022-10-16T15:39:19;16.60;99.90
59075;DHT22;44860;53.020;6.738;2022-10-16T15:41:46;16.50;99.90
59075;DHT22;44860;53.020;6.738;2022-10-16T15:44:16;16.40;99.90
59075;DHT22;44860;53.020;6.738;2022-10-16T15:46:42;16.30;99.90
59075;DHT22;44860;53.020;6.738;2022-10-16T15:49:08;16.30;99.90
59075;DHT22;44860;53.020;6.738;2022-10-16T15:51:38;16.20;99.90
59075;DHT22;44860;53.020;6.738;2022-10-16T15:54:04;16.10;99.90
59075;DHT22;44860;53.020;6.738;2022-10-16T15:56:30;16.00;99.90
59075;DHT22;44860;53.020;6.738;2022-10-16T15:58:59;16.00;99.90
59075;DHT22;44860;53.020;6.738;2022-10-16T16:01:26;15.80;99.90
59075;DHT22;44860;53.020;6.738;2022-10-16T16:03:53;15.70;99.90
59075;DHT22;44860;53.020;6.738;2022-10-16T16:06:19;15.60;99.90
59075;DHT22;44860;53.020;6.738;2022-10-16T16:08:45;15.60;99.90
59075;DHT22;44860;53.020;6.738;2022-10-16T16:11:12;15.50;99.90
59075;DHT22;44860;53.020;6.738;2022-10-16T16:13:39;15.40;99.90
59075;DHT22;44860;53.020;6.738;2022-10-16T16:16:10;15.30;99.90
59075;DHT22;44860;53.020;6.738;2022-10-16T16:18:36;15.30;99.90
59075;DHT22;44860;53.020;6.738;2022-10-16T16:21:02;15.20;99.90
59075;DHT22;44860;53.020;6.738;2022-10-16T16:23:28;15.10;99.90
59075;DHT22;44860;53.020;6.738;2022-10-16T16:26:14;15.00;99.90
59075;DHT22;44860;53.020;6.738;2022-10-16T16:28:41;15.00;99.90
59075;DHT22;44860;53.020;6.738;2022-10-16T16:31:07;14.90;99.90
59075;DHT22;44860;53.020;6.738;2022-10-16T16:33:33;14.80;99.90
59075;DHT22;44860;53.020;6.738;2022-10-16T16:36:01;14.70;99.90
59075;DHT22;44860;53.020;6.738;2022-10-16T16:38:28;14.70;99.90
59075;DHT22;44860;53.020;6.738;2022-10-16T16:40:54;14.60;99.90
59075;DHT22;44860;53.020;6.738;2022-10-16T16:43:23;14.50;99.90
59075;DHT22;44860;53.020;6.738;2022-10-16T16:45:48;14.40;99.90
59075;DHT22;44860;53.020;6.738;2022-10-16T16:48:14;14.40;99.90
59075;DHT22;44860;53.020;6.738;2022-10-16T16:50:40;14.30;99.90
59075;DHT22;44860;53.020;6.738;2022-10-16T16:53:05;14.20;99.90
59075;DHT22;44860;53.020;6.738;2022-10-16T16:55:32;14.20;99.90
59075;DHT22;44860;53.020;6.738;2022-10-16T16:57:58;14.10;99.90
59075;DHT22;44860;53.020;6.738;2022-10-16T17:00:23;14.00;99.90
59075;DHT22;44860;53.020;6.738;2022-10-16T17:02:50;13.90;99.90
59075;DHT22;44860;53.020;6.738;2022-10-16T17:05:16;13.90;99.90
59075;DHT22;44860;53.020;6.738;2022-10-16T17:07:42;13.80;99.90
59075;DHT22;44860;53.020;6.738;2022-10-16T17:10:08;13.80;99.90
59075;DHT22;44860;53.020;6.738;2022-10-16T17:12:34;13.70;99.90
59075;DHT22;44860;53.020;6.738;2022-10-16T17:14:59;13.60;99.90
59075;DHT22;44860;53.020;6.738;2022-10-16T17:17:25;13.60;99.90
59075;DHT22;44860;53.020;6.738;2022-10-16T17:19:51;13.50;99.90
59075;DHT22;44860;53.020;6.738;2022-10-16T17:22:18;13.50;99.90
59075;DHT22;44860;53.020;6.738;2022-10-16T17:24:43;13.40;99.90
59075;DHT22;44860;53.020;6.738;2022-10-16T17:27:09;13.30;99.90
59075;DHT22;44860;53.020;6.738;2022-10-16T17:29:40;13.20;99.90
59075;DHT22;44860;53.020;6.738;2022-10-16T17:32:05;13.20;99.90
59075;DHT22;44860;53.020;6.738;2022-10-16T17:34:31;13.10;99.90